sensor_id;sensor_type;location;lat;lon;timestamp;P1;durP1;ratioP1;P2;durP2;ratioP2
13102;SDS011;52970;46.752;17.108;2022-09-16T00:01:55;4.85;;;2.30;;
13102;SDS011;52970;46.752;17.108;2022-09-16T00:04:20;2.47;;;2.10;;
13102;SDS011;52970;46.752;17.108;2022-09-16T00:06:45;13.65;;;8.57;;
13102;SDS011;52970;46.752;17.108;2022-09-16T00:09:10;25.00;;;13.45;;
13102;SDS011;52970;46.752;17.108;2022-09-16T00:11:36;12.57;;;7.68;;
13102;SDS011;52970;46.752;17.108;2022-09-16T00:14:01;14.30;;;8.98;;
13102;SDS011;52970;46.752;17.108;2022-09-16T00:16:27;14.05;;;7.40;;
13102;SDS011;52970;46.752;17.108;2022-09-16T00:18:57;15.32;;;9.00;;
13102;SDS011;52970;46.752;17.108;2022-09-16T00:21:23;33.83;;;21.20;;
13102;SDS011;52970;46.752;17.108;2022-09-16T00:23:48;20.13;;;12.63;;
13102;SDS011;52970;46.752;17.108;2022-09-16T00:26:14;22.35;;;13.23;;
13102;SDS011;52970;46.752;17.108;2022-09-16T00:28:39;18.98;;;11.10;;
13102;SDS011;52970;46.752;17.108;2022-09-16T00:31:04;15.50;;;10.13;;
13102;SDS011;52970;46.752;17.108;2022-09-16T00:33:30;13.07;;;8.45;;
13102;SDS011;52970;46.752;17.108;2022-09-16T00:36:09;14.57;;;7.75;;
13102;SDS011;52970;46.752;17.108;2022-09-16T00:38:35;11.52;;;6.30;;
13102;SDS011;52970;46.752;17.108;2022-09-16T00:41:01;8.82;;;3.70;;
13102;SDS011;52970;46.752;17.108;2022-09-16T00:43:26;4.80;;;3.55;;
13102;SDS011;52970;46.752;17.108;2022-09-16T00:45:58;4.18;;;3.35;;
13102;SDS011;52970;46.752;17.108;2022-09-16T00:48:25;9.57;;;3.50;;
13102;SDS011;52970;46.752;17.108;2022-09-16T00:51:04;8.35;;;3.75;;
13102;SDS011;52970;46.752;17.108;2022-09-16T00:53:38;8.75;;;4.50;;
13102;SDS011;52970;46.752;17.108;2022-09-16T00:56:05;5.03;;;3.72;;
13102;SDS011;52970;46.752;17.108;2022-09-16T00:58:44;5.13;;;3.72;;
13102;SDS011;52970;46.752;17.108;2022-09-16T01:01:11;5.22;;;3.40;;
13102;SDS011;52970;46.752;17.108;2022-09-16T01:03:43;3.70;;;2.78;;
13102;SDS011;52970;46.752;17.108;2022-09-16T01:06:09;4.75;;;2.92;;
13102;SDS011;52970;46.752;17.108;2022-09-16T01:08:35;8.25;;;3.05;;
13102;SDS011;52970;46.752;17.108;2022-09-16T01:11:01;3.28;;;2.95;;
13102;SDS011;52970;46.752;17.108;2022-09-16T01:13:26;4.70;;;3.05;;
13102;SDS011;52970;46.752;17.108;2022-09-16T01:15:59;7.20;;;3.17;;
13102;SDS011;52970;46.752;17.108;2022-09-16T01:21:05;2.63;;;2.42;;
13102;SDS011;52970;46.752;17.108;2022-09-16T01:33:57;2.65;;;2.45;;
13102;SDS011;52970;46.752;17.108;2022-09-16T01:49:15;5.97;;;2.90;;
13102;SDS011;52970;46.752;17.108;2022-09-16T01:54:17;4.97;;;2.47;;
13102;SDS011;52970;46.752;17.108;2022-09-16T01:59:12;4.72;;;2.80;;
13102;SDS011;52970;46.752;17.108;2022-09-16T02:01:45;5.45;;;2.75;;
13102;SDS011;52970;46.752;17.108;2022-09-16T02:04:14;3.17;;;2.60;;
13102;SDS011;52970;46.752;17.108;2022-09-16T02:06:40;3.28;;;2.78;;
13102;SDS011;52970;46.752;17.108;2022-09-16T02:09:09;4.32;;;2.80;;
13102;SDS011;52970;46.752;17.108;2022-09-16T02:11:35;6.75;;;2.60;;
13102;SDS011;52970;46.752;17.108;2022-09-16T02:14:05;4.35;;;2.78;;
13102;SDS011;52970;46.752;17.108;2022-09-16T02:16:49;4.80;;;2.25;;
13102;SDS011;52970;46.752;17.108;2022-09-16T02:19:21;2.90;;;2.53;;
13102;SDS011;52970;46.752;17.108;2022-09-16T02:21:48;4.15;;;2.90;;
13102;SDS011;52970;46.752;17.108;2022-09-16T02:24:15;4.07;;;2.35;;
13102;SDS011;52970;46.752;17.108;2022-09-16T02:26:43;6.63;;;2.67;;
13102;SDS011;52970;46.752;17.108;2022-09-16T02:29:14;3.63;;;2.47;;
13102;SDS011;52970;46.752;17.108;2022-09-16T02:31:40;3.72;;;2.50;;
13102;SDS011;52970;46.752;17.108;2022-09-16T02:34:10;3.80;;;2.17;;
13102;SDS011;52970;46.752;17.108;2022-09-16T02:36:36;2.50;;;2.30;;
13102;SDS011;52970;46.752;17.108;2022-09-16T02:39:07;2.47;;;2.25;;
13102;SDS011;52970;46.752;17.108;2022-09-16T02:41:35;3.40;;;2.30;;
13102;SDS011;52970;46.752;17.108;2022-09-16T02:44:01;2.53;;;2.33;;
13102;SDS011;52970;46.752;17.108;2022-09-16T02:46:42;3.47;;;2.63;;
13102;SDS011;52970;46.752;17.108;2022-09-16T02:54:29;2.70;;;2.50;;
13102;SDS011;52970;46.752;17.108;2022-09-16T02:56:56;2.65;;;2.45;;
13102;SDS011;52970;46.752;17.108;2022-09-16T02:59:21;2.40;;;2.20;;
13102;SDS011;52970;46.752;17.108;2022-09-16T03:01:48;2.83;;;2.40;;
13102;SDS011;52970;46.752;17.108;2022-09-16T03:04:14;3.42;;;3.13;;
13102;SDS011;52970;46.752;17.108;2022-09-16T03:06:40;2.55;;;2.35;;
13102;SDS011;52970;46.752;17.108;2022-09-16T03:09:06;3.20;;;2.63;;
13102;SDS011;52970;46.752;17.108;2022-09-16T03:23:01;4.25;;;2.78;;
13102;SDS011;52970;46.752;17.108;2022-09-16T03:27:34;4.20;;;2.85;;
13102;SDS011;52970;46.752;17.108;2022-09-16T03:30:04;3.47;;;3.17;;
13102;SDS011;52970;46.752;17.108;2022-09-16T03:35:07;2.80;;;2.60;;
13102;SDS011;52970;46.752;17.108;2022-09-16T03:37:34;2.95;;;2.75;;
13102;SDS011;52970;46.752;17.108;2022-09-16T03:40:02;4.57;;;3.00;;
13102;SDS011;52970;46.752;17.108;2022-09-16T03:42:29;3.10;;;2.58;;
13102;SDS011;52970;46.752;17.108;2022-09-16T03:44:54;3.28;;;2.97;;
13102;SDS011;52970;46.752;17.108;2022-09-16T03:47:19;3.00;;;2.60;;
13102;SDS011;52970;46.752;17.108;2022-09-16T03:49:44;3.15;;;2.85;;
13102;SDS011;52970;46.752;17.108;2022-09-16T03:52:10;4.75;;;2.80;;
13102;SDS011;52970;46.752;17.108;2022-09-16T03:54:35;3.78;;;3.42;;
13102;SDS011;52970;46.752;17.108;2022-09-16T03:57:01;8.52;;;3.30;;
13102;SDS011;52970;46.752;17.108;2022-09-16T03:59:26;3.83;;;3.08;;
13102;SDS011;52970;46.752;17.108;2022-09-16T04:01:52;4.55;;;3.15;;
13102;SDS011;52970;46.752;17.108;2022-09-16T04:04:17;4.40;;;3.42;;
13102;SDS011;52970;46.752;17.108;2022-09-16T04:06:43;6.43;;;3.42;;
13102;SDS011;52970;46.752;17.108;2022-09-16T04:09:11;3.92;;;2.83;;
13102;SDS011;52970;46.752;17.108;2022-09-16T04:11:37;5.22;;;2.92;;
13102;SDS011;52970;46.752;17.108;2022-09-16T04:14:03;2.97;;;2.60;;
13102;SDS011;52970;46.752;17.108;2022-09-16T04:16:28;4.38;;;3.05;;
13102;SDS011;52970;46.752;17.108;2022-09-16T04:18:55;4.50;;;3.33;;
13102;SDS011;52970;46.752;17.108;2022-09-16T04:21:20;4.25;;;3.10;;
13102;SDS011;52970;46.752;17.108;2022-09-16T04:23:45;4.47;;;2.97;;
13102;SDS011;52970;46.752;17.108;2022-09-16T04:26:10;3.90;;;3.30;;
13102;SDS011;52970;46.752;17.108;2022-09-16T04:28:35;3.80;;;3.50;;
13102;SDS011;52970;46.752;17.108;2022-09-16T04:31:01;3.65;;;3.08;;
13102;SDS011;52970;46.752;17.108;2022-09-16T04:33:30;3.35;;;3.00;;
13102;SDS011;52970;46.752;17.108;2022-09-16T04:36:14;4.93;;;3.40;;
13102;SDS011;52970;46.752;17.108;2022-09-16T04:38:40;5.35;;;3.42;;
13102;SDS011;52970;46.752;17.108;2022-09-16T04:41:10;5.00;;;3.70;;
13102;SDS011;52970;46.752;17.108;2022-09-16T04:43:36;4.68;;;3.28;;
13102;SDS011;52970;46.752;17.108;2022-09-16T04:46:01;8.02;;;4.38;;
13102;SDS011;52970;46.752;17.108;2022-09-16T04:48:27;5.22;;;3.58;;
13102;SDS011;52970;46.752;17.108;2022-09-16T04:50:53;3.88;;;3.25;;
13102;SDS011;52970;46.752;17.108;2022-09-16T04:53:19;3.90;;;3.60;;
13102;SDS011;52970;46.752;17.108;2022-09-16T04:55:44;5.85;;;3.38;;
13102;SDS011;52970;46.752;17.108;2022-09-16T04:58:10;3.67;;;3.38;;
13102;SDS011;52970;46.752;17.108;2022-09-16T05:00:35;3.88;;;3.28;;
13102;SDS011;52970;46.752;17.108;2022-09-16T05:03:00;3.95;;;3.20;;
13102;SDS011;52970;46.752;17.108;2022-09-16T05:05:26;3.53;;;3.10;;
13102;SDS011;52970;46.752;17.108;2022-09-16T05:07:51;3.83;;;3.00;;
13102;SDS011;52970;46.752;17.108;2022-09-16T05:10:16;3.25;;;2.97;;
13102;SDS011;52970;46.752;17.108;2022-09-16T05:12:41;4.40;;;3.22;;
13102;SDS011;52970;46.752;17.108;2022-09-16T05:15:07;5.95;;;3.95;;
13102;SDS011;52970;46.752;17.108;2022-09-16T05:17:32;7.07;;;3.42;;
13102;SDS011;52970;46.752;17.108;2022-09-16T05:19:57;4.45;;;3.78;;
13102;SDS011;52970;46.752;17.108;2022-09-16T05:22:23;4.35;;;3.42;;
13102;SDS011;52970;46.752;17.108;2022-09-16T05:24:48;4.05;;;3.20;;
13102;SDS011;52970;46.752;17.108;2022-09-16T05:27:13;3.35;;;3.05;;
13102;SDS011;52970;46.752;17.108;2022-09-16T05:29:39;5.57;;;3.55;;
13102;SDS011;52970;46.752;17.108;2022-09-16T05:32:04;5.43;;;3.30;;
13102;SDS011;52970;46.752;17.108;2022-09-16T05:34:29;5.28;;;3.20;;
13102;SDS011;52970;46.752;17.108;2022-09-16T05:36:55;3.85;;;3.28;;
13102;SDS011;52970;46.752;17.108;2022-09-16T05:39:20;5.32;;;3.25;;
13102;SDS011;52970;46.752;17.108;2022-09-16T05:41:46;4.63;;;4.18;;
13102;SDS011;52970;46.752;17.108;2022-09-16T05:44:12;3.78;;;3.42;;
13102;SDS011;52970;46.752;17.108;2022-09-16T05:46:38;5.40;;;4.50;;
13102;SDS011;52970;46.752;17.108;2022-09-16T05:49:04;4.32;;;3.80;;
13102;SDS011;52970;46.752;17.108;2022-09-16T05:51:30;4.97;;;3.75;;
13102;SDS011;52970;46.752;17.108;2022-09-16T05:53:55;4.43;;;4.03;;
13102;SDS011;52970;46.752;17.108;2022-09-16T05:56:23;5.07;;;3.53;;
13102;SDS011;52970;46.752;17.108;2022-09-16T05:58:53;5.82;;;3.28;;
13102;SDS011;52970;46.752;17.108;2022-09-16T06:01:22;5.50;;;3.70;;
13102;SDS011;52970;46.752;17.108;2022-09-16T06:03:48;3.70;;;3.40;;
13102;SDS011;52970;46.752;17.108;2022-09-16T06:06:19;5.43;;;3.58;;
13102;SDS011;52970;46.752;17.108;2022-09-16T06:08:46;4.63;;;4.22;;
13102;SDS011;52970;46.752;17.108;2022-09-16T06:11:11;4.80;;;4.05;;
13102;SDS011;52970;46.752;17.108;2022-09-16T06:13:37;4.88;;;4.20;;
13102;SDS011;52970;46.752;17.108;2022-09-16T06:16:03;4.13;;;3.83;;
13102;SDS011;52970;46.752;17.108;2022-09-16T06:18:29;4.35;;;4.05;;
13102;SDS011;52970;46.752;17.108;2022-09-16T06:20:55;3.70;;;3.40;;
13102;SDS011;52970;46.752;17.108;2022-09-16T06:23:20;5.57;;;3.95;;
13102;SDS011;52970;46.752;17.108;2022-09-16T06:25:46;4.18;;;3.38;;
13102;SDS011;52970;46.752;17.108;2022-09-16T06:28:12;4.05;;;3.70;;
13102;SDS011;52970;46.752;17.108;2022-09-16T06:30:37;3.80;;;3.50;;
13102;SDS011;52970;46.752;17.108;2022-09-16T06:33:03;3.63;;;3.33;;
13102;SDS011;52970;46.752;17.108;2022-09-16T06:35:28;5.20;;;3.65;;
13102;SDS011;52970;46.752;17.108;2022-09-16T06:37:53;5.47;;;3.30;;
13102;SDS011;52970;46.752;17.108;2022-09-16T06:40:19;4.97;;;3.42;;
13102;SDS011;52970;46.752;17.108;2022-09-16T06:42:44;4.28;;;3.83;;
13102;SDS011;52970;46.752;17.108;2022-09-16T06:45:09;4.25;;;3.83;;
13102;SDS011;52970;46.752;17.108;2022-09-16T06:47:35;3.13;;;2.90;;
13102;SDS011;52970;46.752;17.108;2022-09-16T06:50:00;3.65;;;3.33;;
13102;SDS011;52970;46.752;17.108;2022-09-16T06:52:26;3.33;;;3.03;;
13102;SDS011;52970;46.752;17.108;2022-09-16T06:54:51;3.60;;;3.30;;
13102;SDS011;52970;46.752;17.108;2022-09-16T06:57:16;3.85;;;3.30;;
13102;SDS011;52970;46.752;17.108;2022-09-16T06:59:47;4.43;;;3.58;;
13102;SDS011;52970;46.752;17.108;2022-09-16T07:02:12;4.78;;;3.60;;
13102;SDS011;52970;46.752;17.108;2022-09-16T07:04:37;3.70;;;3.17;;
13102;SDS011;52970;46.752;17.108;2022-09-16T07:07:03;3.88;;;3.58;;
13102;SDS011;52970;46.752;17.108;2022-09-16T07:09:28;3.47;;;3.17;;
13102;SDS011;52970;46.752;17.108;2022-09-16T07:11:54;3.10;;;2.90;;
13102;SDS011;52970;46.752;17.108;2022-09-16T07:14:19;3.53;;;3.22;;
13102;SDS011;52970;46.752;17.108;2022-09-16T07:16:45;4.22;;;3.45;;
13102;SDS011;52970;46.752;17.108;2022-09-16T07:19:10;4.25;;;3.42;;
13102;SDS011;52970;46.752;17.108;2022-09-16T07:21:35;3.50;;;3.20;;
13102;SDS011;52970;46.752;17.108;2022-09-16T07:24:01;3.95;;;3.22;;
13102;SDS011;52970;46.752;17.108;2022-09-16T07:26:30;3.05;;;2.85;;
13102;SDS011;52970;46.752;17.108;2022-09-16T07:28:57;4.10;;;3.80;;
13102;SDS011;52970;46.752;17.108;2022-09-16T07:31:24;4.57;;;3.90;;
13102;SDS011;52970;46.752;17.108;2022-09-16T07:33:50;4.05;;;3.75;;
13102;SDS011;52970;46.752;17.108;2022-09-16T07:36:17;4.43;;;3.67;;
13102;SDS011;52970;46.752;17.108;2022-09-16T07:38:42;4.50;;;3.38;;
13102;SDS011;52970;46.752;17.108;2022-09-16T07:43:33;2.85;;;2.63;;
13102;SDS011;52970;46.752;17.108;2022-09-16T07:45:59;4.30;;;2.70;;
13102;SDS011;52970;46.752;17.108;2022-09-16T07:48:25;3.13;;;2.65;;
13102;SDS011;52970;46.752;17.108;2022-09-16T07:50:57;6.28;;;2.90;;
13102;SDS011;52970;46.752;17.108;2022-09-16T07:53:24;3.17;;;2.90;;
13102;SDS011;52970;46.752;17.108;2022-09-16T07:55:51;3.67;;;2.50;;
13102;SDS011;52970;46.752;17.108;2022-09-16T07:58:16;3.45;;;2.63;;
13102;SDS011;52970;46.752;17.108;2022-09-16T08:00:42;3.75;;;2.92;;
13102;SDS011;52970;46.752;17.108;2022-09-16T08:03:07;2.90;;;2.70;;
13102;SDS011;52970;46.752;17.108;2022-09-16T08:05:32;3.10;;;2.90;;
13102;SDS011;52970;46.752;17.108;2022-09-16T08:07:57;3.78;;;3.00;;
13102;SDS011;52970;46.752;17.108;2022-09-16T08:10:23;5.35;;;3.40;;
13102;SDS011;52970;46.752;17.108;2022-09-16T08:12:48;3.63;;;3.25;;
13102;SDS011;52970;46.752;17.108;2022-09-16T08:15:14;3.60;;;3.30;;
13102;SDS011;52970;46.752;17.108;2022-09-16T08:17:39;3.78;;;3.17;;
13102;SDS011;52970;46.752;17.108;2022-09-16T08:20:04;3.40;;;3.10;;
13102;SDS011;52970;46.752;17.108;2022-09-16T08:22:31;3.08;;;2.88;;
13102;SDS011;52970;46.752;17.108;2022-09-16T08:24:56;3.22;;;2.65;;
13102;SDS011;52970;46.752;17.108;2022-09-16T08:27:21;3.95;;;2.83;;
13102;SDS011;52970;46.752;17.108;2022-09-16T08:29:47;2.83;;;2.60;;
13102;SDS011;52970;46.752;17.108;2022-09-16T08:32:12;4.07;;;2.85;;
13102;SDS011;52970;46.752;17.108;2022-09-16T08:34:38;2.70;;;2.50;;
13102;SDS011;52970;46.752;17.108;2022-09-16T08:37:03;3.03;;;2.67;;
13102;SDS011;52970;46.752;17.108;2022-09-16T08:39:29;3.40;;;2.50;;
13102;SDS011;52970;46.752;17.108;2022-09-16T08:42:08;2.80;;;2.58;;
13102;SDS011;52970;46.752;17.108;2022-09-16T08:49:52;3.08;;;2.78;;
13102;SDS011;52970;46.752;17.108;2022-09-16T08:55:01;4.57;;;2.63;;
13102;SDS011;52970;46.752;17.108;2022-09-16T08:57:28;2.67;;;2.47;;
13102;SDS011;52970;46.752;17.108;2022-09-16T08:59:58;3.35;;;2.88;;
13102;SDS011;52970;46.752;17.108;2022-09-16T09:02:39;3.35;;;3.05;;
13102;SDS011;52970;46.752;17.108;2022-09-16T09:05:12;3.35;;;3.13;;
13102;SDS011;52970;46.752;17.108;2022-09-16T09:07:58;3.42;;;2.70;;
13102;SDS011;52970;46.752;17.108;2022-09-16T09:10:39;2.88;;;2.60;;
13102;SDS011;52970;46.752;17.108;2022-09-16T09:15:42;2.40;;;2.28;;
13102;SDS011;52970;46.752;17.108;2022-09-16T09:23:17;3.78;;;2.88;;
13102;SDS011;52970;46.752;17.108;2022-09-16T09:31:35;4.00;;;2.85;;
13102;SDS011;52970;46.752;17.108;2022-09-16T09:34:12;4.75;;;2.60;;
13102;SDS011;52970;46.752;17.108;2022-09-16T09:42:38;5.00;;;3.43;;
13102;SDS011;52970;46.752;17.108;2022-09-16T09:47:10;5.30;;;4.43;;
13102;SDS011;52970;46.752;17.108;2022-09-16T09:49:38;4.55;;;3.75;;
13102;SDS011;52970;46.752;17.108;2022-09-16T09:52:13;5.43;;;4.07;;
13102;SDS011;52970;46.752;17.108;2022-09-16T09:54:39;5.95;;;4.18;;
13102;SDS011;52970;46.752;17.108;2022-09-16T10:02:18;4.60;;;4.20;;
13102;SDS011;52970;46.752;17.108;2022-09-16T10:04:44;4.32;;;3.90;;
13102;SDS011;52970;46.752;17.108;2022-09-16T10:07:10;4.55;;;4.15;;
13102;SDS011;52970;46.752;17.108;2022-09-16T10:09:36;4.47;;;4.07;;
13102;SDS011;52970;46.752;17.108;2022-09-16T10:12:02;4.68;;;4.00;;
13102;SDS011;52970;46.752;17.108;2022-09-16T10:14:29;4.28;;;3.97;;
13102;SDS011;52970;46.752;17.108;2022-09-16T10:16:55;5.15;;;4.03;;
13102;SDS011;52970;46.752;17.108;2022-09-16T10:19:22;5.80;;;3.88;;
13102;SDS011;52970;46.752;17.108;2022-09-16T10:24:34;3.95;;;3.50;;
13102;SDS011;52970;46.752;17.108;2022-09-16T10:27:00;3.38;;;3.08;;
13102;SDS011;52970;46.752;17.108;2022-09-16T10:29:26;2.53;;;2.33;;
13102;SDS011;52970;46.752;17.108;2022-09-16T10:31:51;2.95;;;2.70;;
13102;SDS011;52970;46.752;17.108;2022-09-16T10:34:21;3.10;;;2.70;;
13102;SDS011;52970;46.752;17.108;2022-09-16T10:36:56;2.85;;;2.40;;
13102;SDS011;52970;46.752;17.108;2022-09-16T10:39:23;2.83;;;2.63;;
13102;SDS011;52970;46.752;17.108;2022-09-16T10:41:49;3.58;;;2.50;;
13102;SDS011;52970;46.752;17.108;2022-09-16T10:44:22;2.80;;;2.60;;
13102;SDS011;52970;46.752;17.108;2022-09-16T10:49:17;3.75;;;3.45;;
13102;SDS011;52970;46.752;17.108;2022-09-16T10:51:44;4.32;;;2.83;;
13102;SDS011;52970;46.752;17.108;2022-09-16T10:54:10;4.30;;;3.15;;
13102;SDS011;52970;46.752;17.108;2022-09-16T10:56:47;3.28;;;2.97;;
13102;SDS011;52970;46.752;17.108;2022-09-16T10:59:13;3.45;;;3.15;;
13102;SDS011;52970;46.752;17.108;2022-09-16T11:01:50;4.00;;;3.60;;
13102;SDS011;52970;46.752;17.108;2022-09-16T11:20:23;3.13;;;2.92;;
13102;SDS011;52970;46.752;17.108;2022-09-16T11:30:24;4.90;;;3.20;;
13102;SDS011;52970;46.752;17.108;2022-09-16T11:40:31;3.65;;;3.22;;
13102;SDS011;52970;46.752;17.108;2022-09-16T11:58:57;2.38;;;2.17;;
13102;SDS011;52970;46.752;17.108;2022-09-16T12:00:57;2.92;;;2.55;;
13102;SDS011;52970;46.752;17.108;2022-09-16T12:05:57;2.55;;;2.35;;
13102;SDS011;52970;46.752;17.108;2022-09-16T12:09:15;2.63;;;2.30;;
13102;SDS011;52970;46.752;17.108;2022-09-16T12:13:41;2.93;;;2.50;;
13102;SDS011;52970;46.752;17.108;2022-09-16T12:16:12;3.78;;;2.00;;
13102;SDS011;52970;46.752;17.108;2022-09-16T12:18:46;2.25;;;2.15;;
13102;SDS011;52970;46.752;17.108;2022-09-16T12:21:23;2.60;;;2.10;;
13102;SDS011;52970;46.752;17.108;2022-09-16T12:23:52;2.47;;;2.03;;
13102;SDS011;52970;46.752;17.108;2022-09-16T12:26:20;2.40;;;2.20;;
13102;SDS011;52970;46.752;17.108;2022-09-16T12:31:36;2.40;;;2.20;;
13102;SDS011;52970;46.752;17.108;2022-09-16T12:34:10;3.75;;;2.17;;
13102;SDS011;52970;46.752;17.108;2022-09-16T12:36:37;2.45;;;2.25;;
13102;SDS011;52970;46.752;17.108;2022-09-16T12:39:04;2.35;;;2.15;;
13102;SDS011;52970;46.752;17.108;2022-09-16T12:49:17;4.28;;;3.88;;
13102;SDS011;52970;46.752;17.108;2022-09-16T13:00:00;2.78;;;2.58;;
13102;SDS011;52970;46.752;17.108;2022-09-16T13:02:27;2.97;;;2.53;;
13102;SDS011;52970;46.752;17.108;2022-09-16T13:04:54;3.83;;;2.72;;
13102;SDS011;52970;46.752;17.108;2022-09-16T13:07:23;3.47;;;2.80;;
13102;SDS011;52970;46.752;17.108;2022-09-16T13:09:58;2.90;;;2.70;;
13102;SDS011;52970;46.752;17.108;2022-09-16T13:12:25;3.70;;;3.08;;
13102;SDS011;52970;46.752;17.108;2022-09-16T13:14:55;3.00;;;2.70;;
13102;SDS011;52970;46.752;17.108;2022-09-16T13:19:52;3.08;;;2.88;;
13102;SDS011;52970;46.752;17.108;2022-09-16T13:22:29;4.32;;;2.70;;
13102;SDS011;52970;46.752;17.108;2022-09-16T13:25:00;3.90;;;3.60;;
13102;SDS011;52970;46.752;17.108;2022-09-16T13:27:33;4.07;;;3.70;;
13102;SDS011;52970;46.752;17.108;2022-09-16T13:37:43;3.00;;;2.80;;
13102;SDS011;52970;46.752;17.108;2022-09-16T13:40:16;3.75;;;3.40;;
13102;SDS011;52970;46.752;17.108;2022-09-16T13:42:41;3.70;;;3.40;;
13102;SDS011;52970;46.752;17.108;2022-09-16T13:47:50;5.35;;;3.70;;
13102;SDS011;52970;46.752;17.108;2022-09-16T13:50:15;4.05;;;3.00;;
13102;SDS011;52970;46.752;17.108;2022-09-16T13:52:45;3.95;;;3.17;;
13102;SDS011;52970;46.752;17.108;2022-09-16T13:55:19;5.03;;;3.83;;
13102;SDS011;52970;46.752;17.108;2022-09-16T13:57:59;3.60;;;3.30;;
13102;SDS011;52970;46.752;17.108;2022-09-16T14:00:26;4.05;;;3.75;;
13102;SDS011;52970;46.752;17.108;2022-09-16T14:13:07;3.60;;;3.28;;
13102;SDS011;52970;46.752;17.108;2022-09-16T14:15:36;3.92;;;3.60;;
13102;SDS011;52970;46.752;17.108;2022-09-16T14:18:02;5.18;;;3.70;;
13102;SDS011;52970;46.752;17.108;2022-09-16T14:20:28;4.07;;;3.78;;
13102;SDS011;52970;46.752;17.108;2022-09-16T14:23:00;4.28;;;3.70;;
13102;SDS011;52970;46.752;17.108;2022-09-16T14:25:27;3.17;;;2.90;;
13102;SDS011;52970;46.752;17.108;2022-09-16T14:28:04;4.35;;;3.63;;
13102;SDS011;52970;46.752;17.108;2022-09-16T14:30:30;5.75;;;4.78;;
13102;SDS011;52970;46.752;17.108;2022-09-16T14:32:56;5.10;;;3.85;;
13102;SDS011;52970;46.752;17.108;2022-09-16T14:35:22;4.05;;;3.65;;
13102;SDS011;52970;46.752;17.108;2022-09-16T14:37:49;4.35;;;3.90;;
13102;SDS011;52970;46.752;17.108;2022-09-16T14:40:17;5.70;;;3.90;;
13102;SDS011;52970;46.752;17.108;2022-09-16T14:42:48;4.60;;;3.60;;
13102;SDS011;52970;46.752;17.108;2022-09-16T14:45:15;3.20;;;3.00;;
13102;SDS011;52970;46.752;17.108;2022-09-16T14:47:41;3.60;;;3.30;;
13102;SDS011;52970;46.752;17.108;2022-09-16T14:50:10;5.70;;;4.18;;
13102;SDS011;52970;46.752;17.108;2022-09-16T14:52:37;4.65;;;4.20;;
13102;SDS011;52970;46.752;17.108;2022-09-16T14:55:06;5.03;;;4.53;;
13102;SDS011;52970;46.752;17.108;2022-09-16T14:57:31;4.65;;;3.95;;
13102;SDS011;52970;46.752;17.108;2022-09-16T14:59:58;4.35;;;3.92;;
13102;SDS011;52970;46.752;17.108;2022-09-16T15:04:57;4.90;;;3.90;;
13102;SDS011;52970;46.752;17.108;2022-09-16T15:07:24;4.10;;;3.55;;
13102;SDS011;52970;46.752;17.108;2022-09-16T15:09:56;3.92;;;3.47;;
13102;SDS011;52970;46.752;17.108;2022-09-16T15:12:45;3.95;;;3.38;;
13102;SDS011;52970;46.752;17.108;2022-09-16T15:15:22;3.53;;;3.22;;
13102;SDS011;52970;46.752;17.108;2022-09-16T15:20:23;3.67;;;3.33;;
13102;SDS011;52970;46.752;17.108;2022-09-16T15:22:49;3.83;;;3.42;;
13102;SDS011;52970;46.752;17.108;2022-09-16T15:25:33;4.15;;;3.65;;
13102;SDS011;52970;46.752;17.108;2022-09-16T15:28:03;3.38;;;3.08;;
13102;SDS011;52970;46.752;17.108;2022-09-16T15:30:29;4.05;;;3.53;;
13102;SDS011;52970;46.752;17.108;2022-09-16T15:32:54;4.13;;;3.33;;
13102;SDS011;52970;46.752;17.108;2022-09-16T15:35:24;4.30;;;3.90;;
13102;SDS011;52970;46.752;17.108;2022-09-16T15:37:50;3.88;;;3.53;;
13102;SDS011;52970;46.752;17.108;2022-09-16T15:43:11;4.05;;;3.67;;
13102;SDS011;52970;46.752;17.108;2022-09-16T15:45:36;5.10;;;4.70;;
13102;SDS011;52970;46.752;17.108;2022-09-16T15:50:36;3.90;;;3.60;;
13102;SDS011;52970;46.752;17.108;2022-09-16T15:53:19;4.13;;;3.70;;
13102;SDS011;52970;46.752;17.108;2022-09-16T15:56:00;4.10;;;3.70;;
13102;SDS011;52970;46.752;17.108;2022-09-16T16:03:22;4.65;;;4.20;;
13102;SDS011;52970;46.752;17.108;2022-09-16T16:05:51;3.83;;;3.40;;
13102;SDS011;52970;46.752;17.108;2022-09-16T16:11:07;3.83;;;3.42;;
13102;SDS011;52970;46.752;17.108;2022-09-16T16:13:33;4.35;;;3.90;;
13102;SDS011;52970;46.752;17.108;2022-09-16T16:15:58;3.88;;;3.53;;
13102;SDS011;52970;46.752;17.108;2022-09-16T16:18:24;4.50;;;3.78;;
13102;SDS011;52970;46.752;17.108;2022-09-16T16:20:49;5.80;;;4.60;;
13102;SDS011;52970;46.752;17.108;2022-09-16T16:23:15;5.97;;;4.38;;
13102;SDS011;52970;46.752;17.108;2022-09-16T16:25:40;5.53;;;4.40;;
13102;SDS011;52970;46.752;17.108;2022-09-16T16:28:05;5.60;;;4.20;;
13102;SDS011;52970;46.752;17.108;2022-09-16T16:30:30;5.00;;;4.38;;
13102;SDS011;52970;46.752;17.108;2022-09-16T16:32:56;6.07;;;4.43;;
13102;SDS011;52970;46.752;17.108;2022-09-16T16:35:21;5.22;;;3.90;;
13102;SDS011;52970;46.752;17.108;2022-09-16T16:37:47;5.40;;;4.05;;
13102;SDS011;52970;46.752;17.108;2022-09-16T16:40:12;7.20;;;3.83;;
13102;SDS011;52970;46.752;17.108;2022-09-16T16:42:38;7.07;;;4.13;;
13102;SDS011;52970;46.752;17.108;2022-09-16T16:45:04;4.35;;;3.95;;
13102;SDS011;52970;46.752;17.108;2022-09-16T16:47:29;4.80;;;3.50;;
13102;SDS011;52970;46.752;17.108;2022-09-16T16:49:55;3.70;;;3.40;;
13102;SDS011;52970;46.752;17.108;2022-09-16T16:52:20;3.67;;;3.38;;
13102;SDS011;52970;46.752;17.108;2022-09-16T16:54:46;3.53;;;3.22;;
13102;SDS011;52970;46.752;17.108;2022-09-16T16:57:12;4.53;;;3.72;;
13102;SDS011;52970;46.752;17.108;2022-09-16T16:59:37;5.32;;;3.53;;
13102;SDS011;52970;46.752;17.108;2022-09-16T17:02:03;4.35;;;3.65;;
13102;SDS011;52970;46.752;17.108;2022-09-16T17:04:29;3.63;;;3.33;;
13102;SDS011;52970;46.752;17.108;2022-09-16T17:06:54;4.00;;;3.60;;
13102;SDS011;52970;46.752;17.108;2022-09-16T17:09:20;6.32;;;3.53;;
13102;SDS011;52970;46.752;17.108;2022-09-16T17:11:58;4.75;;;4.22;;
13102;SDS011;52970;46.752;17.108;2022-09-16T17:14:25;6.93;;;3.75;;
13102;SDS011;52970;46.752;17.108;2022-09-16T17:16:51;4.53;;;4.13;;
13102;SDS011;52970;46.752;17.108;2022-09-16T17:19:16;4.72;;;3.35;;
13102;SDS011;52970;46.752;17.108;2022-09-16T17:21:43;3.53;;;3.22;;
13102;SDS011;52970;46.752;17.108;2022-09-16T17:24:08;3.90;;;3.60;;
13102;SDS011;52970;46.752;17.108;2022-09-16T17:26:34;4.65;;;4.00;;
13102;SDS011;52970;46.752;17.108;2022-09-16T17:28:59;4.13;;;3.70;;
13102;SDS011;52970;46.752;17.108;2022-09-16T17:31:25;6.07;;;3.67;;
13102;SDS011;52970;46.752;17.108;2022-09-16T17:33:52;4.15;;;3.58;;
13102;SDS011;52970;46.752;17.108;2022-09-16T17:36:18;5.63;;;3.85;;
13102;SDS011;52970;46.752;17.108;2022-09-16T17:38:44;4.47;;;3.40;;
13102;SDS011;52970;46.752;17.108;2022-09-16T17:41:10;5.45;;;3.50;;
13102;SDS011;52970;46.752;17.108;2022-09-16T17:43:36;4.78;;;3.53;;
13102;SDS011;52970;46.752;17.108;2022-09-16T17:46:02;5.57;;;4.63;;
13102;SDS011;52970;46.752;17.108;2022-09-16T17:48:28;4.93;;;3.85;;
13102;SDS011;52970;46.752;17.108;2022-09-16T17:50:54;4.93;;;3.90;;
13102;SDS011;52970;46.752;17.108;2022-09-16T17:53:19;5.15;;;4.65;;
13102;SDS011;52970;46.752;17.108;2022-09-16T17:55:45;4.82;;;3.70;;
13102;SDS011;52970;46.752;17.108;2022-09-16T17:58:11;5.20;;;4.60;;
13102;SDS011;52970;46.752;17.108;2022-09-16T18:00:36;5.95;;;4.30;;
13102;SDS011;52970;46.752;17.108;2022-09-16T18:03:01;5.22;;;3.92;;